createdAt,value
2019-03-15T00:00:12.085Z,997.78
2019-03-15T00:01:12.067Z,997.75
2019-03-15T00:02:12.039Z,997.77
2019-03-15T00:03:12.075Z,997.75
2019-03-15T00:04:12.013Z,997.81
2019-03-15T00:05:12.034Z,997.79
2019-03-15T00:06:11.999Z,997.86
2019-03-15T00:07:11.982Z,997.82
2019-03-15T00:08:11.982Z,997.82
2019-03-15T00:09:11.983Z,997.83
2019-03-15T00:10:11.976Z,997.80
2019-03-15T00:11:11.937Z,997.81
2019-03-15T00:12:11.969Z,997.82
2019-03-15T00:13:12.425Z,997.85
2019-03-15T00:14:11.916Z,997.88
2019-03-15T00:15:11.898Z,997.91
2019-03-15T00:16:11.892Z,997.82
2019-03-15T00:17:11.921Z,997.83
2019-03-15T00:18:11.861Z,997.79
2019-03-15T00:19:12.684Z,997.80
2019-03-15T00:20:11.892Z,997.83
2019-03-15T00:21:11.858Z,997.85
2019-03-15T00:22:11.844Z,997.93
2019-03-15T00:23:11.844Z,997.92
2019-03-15T00:24:11.802Z,997.95
2019-03-15T00:25:11.788Z,997.95
2019-03-15T00:26:11.810Z,997.89
2019-03-15T00:27:11.764Z,997.92
2019-03-15T00:28:11.765Z,997.97
2019-03-15T00:29:11.801Z,998.00
2019-03-15T00:30:11.731Z,998.00
2019-03-15T00:31:11.718Z,997.98
2019-03-15T00:32:11.779Z,998.01
2019-03-15T00:33:11.712Z,997.95
2019-03-15T00:34:11.691Z,997.96
2019-03-15T00:35:11.838Z,997.97
2019-03-15T00:36:11.661Z,997.99
2019-03-15T00:37:11.650Z,997.99
2019-03-15T00:38:11.679Z,998.03
2019-03-15T00:39:11.635Z,998.03
2019-03-15T00:40:11.667Z,998.10
2019-03-15T00:41:11.633Z,998.12
2019-03-15T00:42:11.598Z,998.14
2019-03-15T00:43:11.706Z,998.12
2019-03-15T00:44:11.571Z,998.14
2019-03-15T00:45:11.583Z,998.09
2019-03-15T00:46:11.593Z,998.11
2019-03-15T00:47:11.549Z,998.15
2019-03-15T00:48:11.569Z,998.15
2019-03-15T00:49:11.525Z,998.13
2019-03-15T00:50:11.506Z,998.18
2019-03-15T00:51:11.514Z,998.20
2019-03-15T00:52:11.531Z,998.26
2019-03-15T00:53:11.484Z,998.24
2019-03-15T00:54:11.493Z,998.26
2019-03-15T00:55:11.464Z,998.28
2019-03-15T00:56:11.761Z,998.35
2019-03-15T00:57:11.490Z,998.31
2019-03-15T00:58:11.419Z,998.33
2019-03-15T00:59:11.418Z,998.25
2019-03-15T01:00:11.424Z,998.23
2019-03-15T01:01:11.409Z,998.18
2019-03-15T01:02:11.491Z,998.13
2019-03-15T01:03:11.369Z,998.15
2019-03-15T01:04:11.399Z,998.13
2019-03-15T01:05:11.371Z,998.12
2019-03-15T01:06:11.347Z,998.14
2019-03-15T01:07:11.373Z,998.11
2019-03-15T01:08:11.542Z,998.19
2019-03-15T01:09:11.322Z,998.18
2019-03-15T01:10:11.295Z,998.20
2019-03-15T01:11:11.316Z,998.22
2019-03-15T01:12:11.270Z,998.19
2019-03-15T01:13:11.275Z,998.20
2019-03-15T01:14:11.263Z,998.21
2019-03-15T01:15:11.237Z,998.24
2019-03-15T01:16:11.335Z,998.26
2019-03-15T01:17:11.211Z,998.24
2019-03-15T01:18:11.208Z,998.28
2019-03-15T01:19:11.205Z,998.25
2019-03-15T01:20:11.189Z,998.27
2019-03-15T01:21:11.211Z,998.26
2019-03-15T01:22:11.159Z,998.28
2019-03-15T01:23:11.143Z,998.21
2019-03-15T01:24:11.160Z,998.28
2019-03-15T01:25:11.217Z,998.24
2019-03-15T01:26:11.139Z,998.25
2019-03-15T01:27:11.098Z,998.27
2019-03-15T01:28:11.092Z,998.26
2019-03-15T01:29:11.178Z,998.25
2019-03-15T01:30:11.097Z,998.28
2019-03-15T01:31:11.060Z,998.32
2019-03-15T01:32:11.147Z,998.34
2019-03-15T01:33:11.071Z,998.34
2019-03-15T01:34:11.028Z,998.38
2019-03-15T01:35:11.016Z,998.37
2019-03-15T01:36:11.116Z,998.41
2019-03-15T01:37:11.060Z,998.37
2019-03-15T01:38:10.983Z,998.39
2019-03-15T01:39:10.977Z,998.37
2019-03-15T01:40:11.026Z,998.44
2019-03-15T01:41:10.949Z,998.44
2019-03-15T01:42:10.976Z,998.43
2019-03-15T01:43:10.929Z,998.42
2019-03-15T01:44:10.929Z,998.45
2019-03-15T01:45:10.960Z,998.41
2019-03-15T01:46:10.898Z,998.40
2019-03-15T01:47:10.929Z,998.40
2019-03-15T01:48:10.913Z,998.38
2019-03-15T01:49:10.872Z,998.41
2019-03-15T01:50:10.892Z,998.37
2019-03-15T01:51:10.905Z,998.35
2019-03-15T01:52:10.837Z,998.34
2019-03-15T01:53:10.812Z,998.35
2019-03-15T01:54:10.841Z,998.37
2019-03-15T01:55:10.798Z,998.35
2019-03-15T01:56:10.924Z,998.36
2019-03-15T01:57:10.781Z,998.34
2019-03-15T01:58:10.771Z,998.32
2019-03-15T01:59:10.826Z,998.34
2019-03-15T02:00:10.749Z,998.36
2019-03-15T02:01:10.792Z,998.34
2019-03-15T02:02:10.717Z,998.30
2019-03-15T02:03:10.706Z,998.32
2019-03-15T02:04:10.734Z,998.29
2019-03-15T02:05:10.765Z,998.29
2019-03-15T02:06:10.709Z,998.27
2019-03-15T02:07:10.725Z,998.27
2019-03-15T02:08:10.670Z,998.27
2019-03-15T02:09:10.636Z,998.30
2019-03-15T02:10:11.083Z,998.26
2019-03-15T02:11:10.624Z,998.25
2019-03-15T02:12:10.610Z,998.20
2019-03-15T02:13:10.621Z,998.16
2019-03-15T02:14:10.677Z,998.14
2019-03-15T02:15:10.610Z,998.23
2019-03-15T02:16:10.602Z,998.21
2019-03-15T02:17:10.616Z,998.25
2019-03-15T02:18:10.545Z,998.26
2019-03-15T02:19:10.629Z,998.23
2019-03-15T02:20:10.556Z,998.22
2019-03-15T02:21:10.514Z,998.20
2019-03-15T02:22:10.526Z,998.21
2019-03-15T02:23:10.487Z,998.24
2019-03-15T02:24:10.485Z,998.26
2019-03-15T02:25:10.497Z,998.23
2019-03-15T02:26:10.506Z,998.22
2019-03-15T02:27:10.466Z,998.17
2019-03-15T02:28:10.479Z,998.21
2019-03-15T02:29:10.421Z,998.16
2019-03-15T02:30:10.435Z,998.15
2019-03-15T02:31:10.504Z,998.12
2019-03-15T02:32:10.409Z,998.09
2019-03-15T02:33:10.399Z,998.16
2019-03-15T02:34:10.405Z,998.10
2019-03-15T02:35:10.367Z,998.13
2019-03-15T02:36:10.389Z,998.07
2019-03-15T02:37:10.378Z,998.09
2019-03-15T02:38:10.342Z,998.07
2019-03-15T02:39:10.380Z,998.06
2019-03-15T02:40:10.377Z,998.11
2019-03-15T02:41:10.296Z,998.07
2019-03-15T02:42:10.422Z,998.05
2019-03-15T02:43:10.295Z,998.08
2019-03-15T02:44:10.306Z,998.13
2019-03-15T02:45:10.287Z,998.08
2019-03-15T02:46:10.270Z,998.08
2019-03-15T02:47:10.219Z,998.09
2019-03-15T02:48:10.226Z,998.05
2019-03-15T02:49:10.282Z,998.09
2019-03-15T02:50:10.210Z,998.05
2019-03-15T02:51:10.190Z,998.02
2019-03-15T02:52:10.174Z,997.98
2019-03-15T02:53:10.187Z,997.96
2019-03-15T02:54:10.150Z,997.97
2019-03-15T02:55:10.154Z,997.98
2019-03-15T02:56:10.155Z,998.02
2019-03-15T02:57:10.122Z,997.95
2019-03-15T02:58:10.144Z,997.94
2019-03-15T02:59:10.112Z,997.94
2019-03-15T03:00:10.093Z,997.97
2019-03-15T03:01:10.129Z,997.93
2019-03-15T03:02:10.115Z,997.97
2019-03-15T03:03:10.074Z,997.88
2019-03-15T03:04:10.054Z,997.89
2019-03-15T03:05:10.061Z,997.90
2019-03-15T03:06:10.035Z,998.00
2019-03-15T03:07:10.030Z,997.94
2019-03-15T03:08:10.017Z,998.01
2019-03-15T03:09:10.038Z,997.94
2019-03-15T03:10:10.018Z,998.01
2019-03-15T03:11:10.001Z,997.97
2019-03-15T03:12:09.955Z,998.00
2019-03-15T03:13:10.749Z,997.90
2019-03-15T03:14:09.963Z,997.91
2019-03-15T03:15:09.923Z,997.90
2019-03-15T03:16:09.948Z,997.84
2019-03-15T03:17:09.897Z,997.83
2019-03-15T03:18:09.986Z,997.80
2019-03-15T03:19:09.891Z,997.83
2019-03-15T03:20:09.869Z,997.81
2019-03-15T03:21:09.850Z,997.86
2019-03-15T03:22:09.840Z,997.80
2019-03-15T03:23:09.880Z,997.79
2019-03-15T03:24:09.839Z,997.83
2019-03-15T03:25:09.876Z,997.77
2019-03-15T03:26:09.795Z,997.76
2019-03-15T03:27:09.827Z,997.77
2019-03-15T03:28:09.790Z,997.75
2019-03-15T03:29:09.784Z,997.75
2019-03-15T03:30:09.857Z,997.76
2019-03-15T03:31:09.744Z,997.71
2019-03-15T03:32:09.754Z,997.74
2019-03-15T03:33:12.338Z,997.72
2019-03-15T03:34:11.713Z,997.74
2019-03-15T03:35:10.704Z,997.81
2019-03-15T03:36:09.764Z,997.78
2019-03-15T03:37:09.738Z,997.75
2019-03-15T03:38:09.701Z,997.73
2019-03-15T03:39:09.661Z,997.72
2019-03-15T03:40:09.765Z,997.74
2019-03-15T03:41:09.634Z,997.71
2019-03-15T03:42:09.626Z,997.73
2019-03-15T03:43:09.642Z,997.68
2019-03-15T03:44:09.602Z,997.73
2019-03-15T03:45:09.622Z,997.78
2019-03-15T03:46:09.595Z,997.73
2019-03-15T03:47:09.669Z,997.75
2019-03-15T03:48:09.585Z,997.74
2019-03-15T03:49:09.563Z,997.74
2019-03-15T03:50:09.605Z,997.76
2019-03-15T03:51:09.536Z,997.77
2019-03-15T03:52:09.545Z,997.76
2019-03-15T03:53:09.605Z,997.70
2019-03-15T03:54:09.493Z,997.66
2019-03-15T03:55:09.485Z,997.62
2019-03-15T03:56:09.518Z,997.64
2019-03-15T03:57:10.490Z,997.61
2019-03-15T03:58:09.470Z,997.56
2019-03-15T03:59:09.447Z,997.55
2019-03-15T04:00:09.477Z,997.49
2019-03-15T04:01:09.437Z,997.49
2019-03-15T04:02:09.504Z,997.47
2019-03-15T04:03:09.397Z,997.43
2019-03-15T04:04:09.442Z,997.46
2019-03-15T04:05:09.373Z,997.44
2019-03-15T04:06:09.463Z,997.46
2019-03-15T04:07:09.365Z,997.45
2019-03-15T04:08:09.347Z,997.51
2019-03-15T04:09:09.381Z,997.50
2019-03-15T04:10:09.333Z,997.50
2019-03-15T04:11:09.308Z,997.47
2019-03-15T04:12:09.317Z,997.47
2019-03-15T04:13:09.282Z,997.49
2019-03-15T04:14:09.335Z,997.47
2019-03-15T04:15:09.301Z,997.51
2019-03-15T04:16:09.266Z,997.48
2019-03-15T04:17:09.244Z,997.51
2019-03-15T04:18:09.226Z,997.54
2019-03-15T04:19:09.217Z,997.53
2019-03-15T04:20:09.224Z,997.51
2019-03-15T04:21:09.320Z,997.48
2019-03-15T04:22:09.186Z,997.52
2019-03-15T04:23:09.178Z,997.49
2019-03-15T04:24:09.196Z,997.46
2019-03-15T04:25:09.162Z,997.42
2019-03-15T04:26:09.162Z,997.44
2019-03-15T04:27:09.142Z,997.45
2019-03-15T04:28:09.160Z,997.45
2019-03-15T04:29:09.108Z,997.52
2019-03-15T04:30:09.217Z,997.49
2019-03-15T04:31:09.110Z,997.50
2019-03-15T04:32:09.088Z,997.54
2019-03-15T04:33:09.102Z,997.53
2019-03-15T04:34:09.053Z,997.48
2019-03-15T04:35:09.042Z,997.48
2019-03-15T04:36:09.071Z,997.42
2019-03-15T04:37:09.486Z,997.43
2019-03-15T04:38:09.012Z,997.46
2019-03-15T04:39:09.003Z,997.39
2019-03-15T04:40:09.129Z,997.41
2019-03-15T04:41:08.974Z,997.35
2019-03-15T04:42:08.985Z,997.33
2019-03-15T04:43:08.964Z,997.31
2019-03-15T04:44:08.951Z,997.31
2019-03-15T04:45:08.933Z,997.33
2019-03-15T04:46:08.925Z,997.29
2019-03-15T04:47:08.984Z,997.28
2019-03-15T04:48:08.909Z,997.32
2019-03-15T04:49:08.963Z,997.31
2019-03-15T04:50:08.876Z,997.30
2019-03-15T04:51:08.865Z,997.28
2019-03-15T04:52:08.913Z,997.26
2019-03-15T04:53:08.847Z,997.19
2019-03-15T04:54:08.832Z,997.20
2019-03-15T04:55:09.001Z,997.22
2019-03-15T04:56:08.809Z,997.26
2019-03-15T04:57:08.801Z,997.19
2019-03-15T04:58:08.847Z,997.22
2019-03-15T04:59:08.784Z,997.12
2019-03-15T05:00:08.778Z,997.12
2019-03-15T05:01:08.794Z,997.16
2019-03-15T05:02:08.787Z,997.07
2019-03-15T05:03:08.754Z,997.09
2019-03-15T05:04:08.729Z,997.13
2019-03-15T05:05:08.723Z,997.15
2019-03-15T05:06:08.775Z,997.10
2019-03-15T05:07:08.689Z,997.05
2019-03-15T05:08:08.757Z,997.04
2019-03-15T05:09:08.672Z,997.04
2019-03-15T05:10:08.708Z,997.04
2019-03-15T05:11:08.666Z,997.10
2019-03-15T05:12:08.645Z,997.10
2019-03-15T05:13:08.618Z,997.06
2019-03-15T05:14:08.617Z,997.02
2019-03-15T05:15:08.637Z,997.07
2019-03-15T05:16:08.588Z,997.10
2019-03-15T05:17:08.601Z,997.11
2019-03-15T05:18:08.564Z,997.11
2019-03-15T05:19:08.555Z,997.03
2019-03-15T05:20:08.565Z,997.05
2019-03-15T05:21:08.531Z,997.07
2019-03-15T05:22:08.522Z,997.05
2019-03-15T05:23:08.526Z,997.05
2019-03-15T05:24:08.506Z,997.06
2019-03-15T05:25:08.500Z,997.04
2019-03-15T05:26:08.514Z,997.02
2019-03-15T05:27:08.470Z,996.99
2019-03-15T05:28:08.477Z,997.00
2019-03-15T05:29:08.466Z,996.98
2019-03-15T05:30:08.445Z,996.97
2019-03-15T05:31:08.423Z,996.93
2019-03-15T05:32:08.413Z,996.96
2019-03-15T05:33:08.451Z,996.86
2019-03-15T05:34:08.389Z,996.90
2019-03-15T05:35:08.379Z,996.91
2019-03-15T05:36:08.382Z,996.95
2019-03-15T05:37:08.380Z,996.90
2019-03-15T05:38:08.432Z,996.86
2019-03-15T05:39:08.366Z,996.82
2019-03-15T05:40:08.326Z,996.80
2019-03-15T05:41:08.312Z,996.81
2019-03-15T05:42:08.303Z,996.80
2019-03-15T05:43:08.341Z,996.81
2019-03-15T05:44:08.283Z,996.84
2019-03-15T05:45:08.315Z,996.79
2019-03-15T05:46:08.261Z,996.82
2019-03-15T05:47:08.246Z,996.83
2019-03-15T05:48:08.237Z,996.80
2019-03-15T05:49:08.238Z,996.83
2019-03-15T05:50:08.215Z,996.85
2019-03-15T05:51:08.226Z,996.91
2019-03-15T05:52:08.192Z,996.91
2019-03-15T05:53:08.181Z,996.89
2019-03-15T05:54:08.186Z,996.91
2019-03-15T05:55:08.174Z,996.88
2019-03-15T05:56:08.150Z,996.86
2019-03-15T05:57:08.192Z,996.83
2019-03-15T05:58:08.125Z,996.84
2019-03-15T05:59:08.113Z,996.84
2019-03-15T06:00:08.129Z,996.82
2019-03-15T06:01:08.096Z,996.79
2019-03-15T06:02:08.083Z,996.79
2019-03-15T06:03:08.117Z,996.79
2019-03-15T06:04:08.058Z,996.76
2019-03-15T06:05:08.943Z,996.71
2019-03-15T06:06:08.048Z,996.66
2019-03-15T06:07:08.025Z,996.57
2019-03-15T06:08:08.017Z,996.52
2019-03-15T06:09:08.052Z,996.54
2019-03-15T06:10:07.994Z,996.49
2019-03-15T06:11:07.993Z,996.52
2019-03-15T06:12:07.986Z,996.58
2019-03-15T06:13:07.963Z,996.56
2019-03-15T06:14:07.948Z,996.55
2019-03-15T06:15:08.021Z,996.53
2019-03-15T06:16:07.934Z,996.51
2019-03-15T06:17:07.916Z,996.51
2019-03-15T06:18:07.920Z,996.57
2019-03-15T06:19:07.894Z,996.52
2019-03-15T06:20:07.919Z,996.54
2019-03-15T06:21:07.897Z,996.56
2019-03-15T06:22:07.868Z,996.57
2019-03-15T06:23:07.854Z,996.61
2019-03-15T06:24:07.845Z,996.60
2019-03-15T06:25:07.832Z,996.61
2019-03-15T06:26:07.831Z,996.57
2019-03-15T06:27:07.854Z,996.62
2019-03-15T06:28:07.806Z,996.64
2019-03-15T06:29:07.790Z,996.56
2019-03-15T06:30:07.774Z,996.50
2019-03-15T06:31:07.778Z,996.47
2019-03-15T06:32:07.764Z,996.47
2019-03-15T06:33:07.765Z,996.39
2019-03-15T06:34:07.729Z,996.40
2019-03-15T06:35:07.732Z,996.39
2019-03-15T06:36:07.714Z,996.36
2019-03-15T06:37:07.698Z,996.35
2019-03-15T06:38:07.687Z,996.30
2019-03-15T06:39:08.426Z,996.30
2019-03-15T06:40:07.663Z,996.37
2019-03-15T06:41:07.673Z,996.37
2019-03-15T06:42:07.647Z,996.37
2019-03-15T06:43:07.632Z,996.38
2019-03-15T06:44:07.619Z,996.41
2019-03-15T06:45:07.628Z,996.34
2019-03-15T06:46:07.610Z,996.34
2019-03-15T06:47:07.590Z,996.34
2019-03-15T06:48:07.580Z,996.34
2019-03-15T06:49:07.565Z,996.32
2019-03-15T06:50:07.568Z,996.32
2019-03-15T06:51:09.270Z,996.32
2019-03-15T06:52:07.547Z,996.31
2019-03-15T06:53:07.520Z,996.34
2019-03-15T06:54:11.751Z,996.28
2019-03-15T06:55:07.518Z,996.24
2019-03-15T06:56:07.491Z,996.20
2019-03-15T06:57:07.518Z,996.23
2019-03-15T06:58:07.464Z,996.19
2019-03-15T06:59:07.457Z,996.14
2019-03-15T07:00:07.444Z,996.14
2019-03-15T07:01:07.451Z,996.10
2019-03-15T07:02:07.420Z,996.05
2019-03-15T07:03:07.445Z,996.11
2019-03-15T07:04:07.424Z,996.15
2019-03-15T07:05:07.392Z,996.05
2019-03-15T07:06:07.378Z,996.03
2019-03-15T07:07:07.369Z,996.03
2019-03-15T07:08:07.360Z,996.04
2019-03-15T07:09:07.564Z,996.07
2019-03-15T07:10:07.344Z,996.00
2019-03-15T07:11:07.344Z,996.02
2019-03-15T07:12:09.745Z,995.98
2019-03-15T07:13:07.304Z,995.96
2019-03-15T07:14:07.294Z,995.93
2019-03-15T07:15:07.311Z,995.95
2019-03-15T07:16:07.279Z,995.93
2019-03-15T07:17:07.273Z,995.92
2019-03-15T07:18:07.995Z,995.92
2019-03-15T07:19:07.238Z,995.88
2019-03-15T07:20:07.230Z,995.95
2019-03-15T07:21:07.252Z,995.96
2019-03-15T07:22:07.213Z,995.93
2019-03-15T07:23:07.193Z,995.91
2019-03-15T07:24:07.180Z,995.94
2019-03-15T07:25:07.171Z,995.91
2019-03-15T07:26:07.161Z,995.86
2019-03-15T07:27:12.927Z,995.89
2019-03-15T07:28:08.138Z,995.87
2019-03-15T07:29:07.126Z,995.86
2019-03-15T07:30:07.118Z,995.82
2019-03-15T07:31:07.108Z,995.82
2019-03-15T07:32:07.117Z,995.86
2019-03-15T07:33:07.081Z,995.82
2019-03-15T07:34:07.094Z,995.81
2019-03-15T07:35:07.460Z,995.77
2019-03-15T07:36:07.050Z,995.79
2019-03-15T07:37:07.038Z,995.77
2019-03-15T07:38:07.060Z,995.76
2019-03-15T07:39:07.013Z,995.67
2019-03-15T07:40:07.008Z,995.64
2019-03-15T07:41:06.999Z,995.67
2019-03-15T07:42:07.142Z,995.62
2019-03-15T07:43:07.017Z,995.59
2019-03-15T07:44:06.973Z,995.56
2019-03-15T07:45:06.955Z,995.61
2019-03-15T07:46:06.942Z,995.58
2019-03-15T07:47:06.927Z,995.56
2019-03-15T07:48:06.918Z,995.57
2019-03-15T07:49:06.966Z,995.57
2019-03-15T07:50:06.892Z,995.45
2019-03-15T07:51:06.882Z,995.51
2019-03-15T07:52:06.871Z,995.45
2019-03-15T07:53:06.875Z,995.48
2019-03-15T07:54:06.851Z,995.48
2019-03-15T07:55:06.904Z,995.46
2019-03-15T07:56:06.827Z,995.49
2019-03-15T07:57:06.822Z,995.47
2019-03-15T07:58:07.486Z,995.50
2019-03-15T07:59:06.796Z,995.46
2019-03-15T08:00:06.787Z,995.48
2019-03-15T08:01:06.849Z,995.48
2019-03-15T08:02:06.760Z,995.51
2019-03-15T08:03:06.752Z,995.45
2019-03-15T08:04:16.784Z,995.42
2019-03-15T08:05:07.726Z,995.40
2019-03-15T08:06:06.729Z,995.40
2019-03-15T08:07:06.719Z,995.38
2019-03-15T08:08:06.747Z,995.34
2019-03-15T08:09:06.687Z,995.29
2019-03-15T08:10:06.706Z,995.23
2019-03-15T08:11:06.664Z,995.24
2019-03-15T08:12:06.666Z,995.25
2019-03-15T08:13:06.639Z,995.13
2019-03-15T08:14:06.674Z,995.06
2019-03-15T08:15:06.625Z,995.02
2019-03-15T08:16:06.634Z,995.01
2019-03-15T08:17:06.597Z,995.02
2019-03-15T08:18:06.611Z,995.03
2019-03-15T08:19:06.584Z,995.08
2019-03-15T08:20:06.563Z,995.04
2019-03-15T08:21:06.614Z,995.10
2019-03-15T08:22:06.543Z,995.15
2019-03-15T08:23:08.633Z,995.23
2019-03-15T08:24:06.534Z,995.27
2019-03-15T08:25:06.507Z,995.29
2019-03-15T08:26:06.519Z,995.32
2019-03-15T08:27:06.488Z,995.35
2019-03-15T08:28:06.536Z,995.38
2019-03-15T08:29:09.473Z,995.40
2019-03-15T08:30:06.452Z,995.35
2019-03-15T08:31:06.443Z,995.34
2019-03-15T08:32:06.447Z,995.36
2019-03-15T08:33:10.458Z,995.34
2019-03-15T08:34:06.431Z,995.28
2019-03-15T08:35:06.400Z,995.25
2019-03-15T08:36:06.388Z,995.20
2019-03-15T08:37:06.374Z,995.19
2019-03-15T08:38:06.380Z,995.21
2019-03-15T08:39:06.355Z,995.14
2019-03-15T08:40:06.342Z,995.08
2019-03-15T08:41:06.346Z,995.11
2019-03-15T08:42:06.319Z,995.12
2019-03-15T08:43:06.310Z,995.16
2019-03-15T08:44:06.316Z,995.08
2019-03-15T08:45:06.289Z,995.05
2019-03-15T08:46:06.277Z,995.00
2019-03-15T08:47:06.267Z,995.04
2019-03-15T08:48:06.293Z,994.96
2019-03-15T08:49:06.246Z,994.95
2019-03-15T08:50:06.253Z,994.98
2019-03-15T08:51:06.223Z,994.96
2019-03-15T08:52:06.210Z,994.94
2019-03-15T08:53:06.202Z,994.85
2019-03-15T08:54:06.215Z,994.89
2019-03-15T08:55:06.192Z,994.86
2019-03-15T08:56:06.170Z,994.81
2019-03-15T08:57:06.156Z,994.80
2019-03-15T08:58:13.910Z,994.79
2019-03-15T08:59:07.132Z,994.79
2019-03-15T09:00:06.147Z,994.80
2019-03-15T09:01:06.127Z,994.74
2019-03-15T09:02:06.102Z,994.77
2019-03-15T09:03:06.090Z,994.78
2019-03-15T09:04:06.079Z,994.77
2019-03-15T09:05:06.069Z,994.80
2019-03-15T09:06:06.105Z,994.79
2019-03-15T09:07:06.058Z,994.81
2019-03-15T09:08:06.066Z,994.86
2019-03-15T09:09:06.024Z,994.83
2019-03-15T09:10:06.012Z,994.84
2019-03-15T09:11:06.002Z,994.83
2019-03-15T09:12:06.035Z,994.71
2019-03-15T09:13:06.001Z,994.69
2019-03-15T09:14:05.986Z,994.74
2019-03-15T09:15:05.958Z,994.77
2019-03-15T09:16:05.949Z,994.79
2019-03-15T09:17:05.935Z,994.73
2019-03-15T09:18:05.972Z,994.71
2019-03-15T09:19:05.917Z,994.58
2019-03-15T09:20:05.919Z,994.45
2019-03-15T09:21:05.893Z,994.39
2019-03-15T09:22:05.885Z,994.32
2019-03-15T09:23:05.870Z,994.40
2019-03-15T09:24:05.885Z,994.35
2019-03-15T09:25:18.552Z,994.42
2019-03-15T09:26:10.196Z,994.51
2019-03-15T09:27:05.827Z,994.48
2019-03-15T09:28:05.818Z,994.37
2019-03-15T09:29:05.818Z,994.48
2019-03-15T09:30:05.835Z,994.44
2019-03-15T09:31:07.522Z,994.34
2019-03-15T09:32:09.149Z,994.28
2019-03-15T09:33:05.773Z,994.27
2019-03-15T09:34:05.755Z,994.36
2019-03-15T09:35:05.743Z,994.39
2019-03-15T09:36:05.795Z,994.36
2019-03-15T09:37:05.719Z,994.29
2019-03-15T09:38:05.726Z,994.29
2019-03-15T09:39:05.695Z,994.31
2019-03-15T09:40:05.683Z,994.27
2019-03-15T09:41:05.672Z,994.24
2019-03-15T09:42:05.706Z,994.25
2019-03-15T09:43:05.674Z,994.32
2019-03-15T09:44:05.639Z,994.36
2019-03-15T09:45:05.628Z,994.28
2019-03-15T09:46:05.642Z,994.34
2019-03-15T09:47:05.608Z,994.35
2019-03-15T09:48:05.594Z,994.36
2019-03-15T09:49:05.624Z,994.34
2019-03-15T09:50:05.577Z,994.28
2019-03-15T09:51:05.565Z,994.32
2019-03-15T09:52:05.564Z,994.26
2019-03-15T09:53:06.107Z,994.28
2019-03-15T09:54:05.528Z,994.24
2019-03-15T09:55:05.553Z,994.23
2019-03-15T09:56:05.507Z,994.18
2019-03-15T09:57:05.500Z,994.18
2019-03-15T09:58:05.498Z,994.22
2019-03-15T09:59:05.475Z,994.17
2019-03-15T10:00:05.463Z,994.21
2019-03-15T10:01:05.755Z,994.24
2019-03-15T10:02:07.833Z,994.12
2019-03-15T10:03:05.433Z,994.15
2019-03-15T10:04:05.453Z,994.19
2019-03-15T10:05:10.679Z,994.16
2019-03-15T10:06:14.828Z,994.17
2019-03-15T10:07:06.406Z,994.14
2019-03-15T10:08:05.415Z,994.20
2019-03-15T10:09:05.364Z,994.29
2019-03-15T10:10:13.540Z,994.20
2019-03-15T10:11:06.342Z,994.19
2019-03-15T10:12:05.331Z,994.16
2019-03-15T10:13:06.462Z,994.16
2019-03-15T10:14:05.345Z,994.10
2019-03-15T10:15:07.769Z,994.09
2019-03-15T10:16:05.300Z,994.08
2019-03-15T10:17:05.275Z,994.15
2019-03-15T10:18:05.274Z,994.09
2019-03-15T10:19:05.252Z,994.07
2019-03-15T10:20:05.261Z,994.04
2019-03-15T10:21:05.240Z,994.01
2019-03-15T10:22:05.238Z,994.06
2019-03-15T10:23:06.450Z,994.05
2019-03-15T10:24:05.194Z,993.99
2019-03-15T10:25:05.190Z,994.04
2019-03-15T10:26:05.187Z,994.03
2019-03-15T10:27:05.166Z,994.03
2019-03-15T10:28:05.167Z,994.07
2019-03-15T10:29:14.709Z,994.01
2019-03-15T10:30:06.132Z,994.01
2019-03-15T10:31:05.122Z,993.97
2019-03-15T10:32:05.145Z,993.98
2019-03-15T10:33:05.111Z,993.90
2019-03-15T10:34:05.889Z,993.90
2019-03-15T10:35:05.228Z,993.95
2019-03-15T10:36:05.071Z,994.01
2019-03-15T10:37:06.280Z,993.98
2019-03-15T10:38:05.115Z,993.95
2019-03-15T10:39:05.029Z,993.98
2019-03-15T10:40:05.022Z,993.99
2019-03-15T10:41:05.009Z,993.99
2019-03-15T10:42:04.999Z,993.95
2019-03-15T10:43:04.995Z,994.04
2019-03-15T10:44:05.035Z,994.00
2019-03-15T10:45:04.983Z,994.05
2019-03-15T10:46:06.257Z,994.01
2019-03-15T10:47:04.945Z,994.02
2019-03-15T10:48:07.947Z,994.04
2019-03-15T10:49:04.920Z,994.06
2019-03-15T10:50:04.907Z,994.04
2019-03-15T10:51:04.950Z,993.89
2019-03-15T10:52:04.888Z,993.96
2019-03-15T10:53:04.879Z,993.88
2019-03-15T10:54:04.867Z,993.76
2019-03-15T10:55:04.860Z,993.89
2019-03-15T10:56:04.845Z,993.97
2019-03-15T10:57:04.846Z,994.02
2019-03-15T10:58:04.851Z,994.06
2019-03-15T10:59:04.816Z,993.96
2019-03-15T11:00:04.797Z,993.94
2019-03-15T11:01:04.797Z,993.89
2019-03-15T11:02:04.793Z,993.97
2019-03-15T11:03:04.769Z,993.88
2019-03-15T11:04:04.790Z,993.90
2019-03-15T11:05:04.754Z,993.91
2019-03-15T11:06:04.736Z,993.93
2019-03-15T11:07:04.723Z,993.94
2019-03-15T11:08:04.726Z,993.98
2019-03-15T11:09:04.714Z,993.96
2019-03-15T11:10:04.726Z,993.97
2019-03-15T11:11:04.682Z,993.96
2019-03-15T11:12:04.669Z,994.10
2019-03-15T11:13:04.673Z,993.98
2019-03-15T11:14:04.654Z,994.06
2019-03-15T11:15:04.665Z,994.05
2019-03-15T11:16:04.635Z,994.00
2019-03-15T11:17:04.614Z,994.04
2019-03-15T11:18:04.602Z,994.06
2019-03-15T11:19:04.602Z,994.01
2019-03-15T11:20:04.579Z,994.10
2019-03-15T11:21:04.626Z,994.07
2019-03-15T11:22:04.559Z,994.07
2019-03-15T11:23:04.547Z,994.17
2019-03-15T11:24:04.544Z,994.12
2019-03-15T11:25:04.531Z,994.17
2019-03-15T11:26:13.443Z,994.16
2019-03-15T11:27:05.545Z,994.23
2019-03-15T11:28:04.493Z,994.19
2019-03-15T11:29:04.480Z,994.19
2019-03-15T11:30:04.470Z,994.11
2019-03-15T11:31:04.463Z,994.15
2019-03-15T11:32:04.463Z,994.18
2019-03-15T11:33:04.490Z,994.13
2019-03-15T11:34:04.427Z,994.18
2019-03-15T11:35:04.418Z,994.17
2019-03-15T11:36:04.402Z,994.05
2019-03-15T11:37:04.394Z,994.05
2019-03-15T11:38:04.385Z,994.03
2019-03-15T11:39:04.423Z,994.08
2019-03-15T11:40:04.362Z,994.01
2019-03-15T11:41:04.349Z,994.11
2019-03-15T11:42:04.338Z,994.00
2019-03-15T11:43:04.344Z,994.00
2019-03-15T11:44:04.332Z,993.98
2019-03-15T11:45:04.351Z,994.00
2019-03-15T11:46:04.294Z,993.91
2019-03-15T11:47:04.294Z,993.91
2019-03-15T11:48:04.707Z,993.95
2019-03-15T11:49:04.289Z,994.07
2019-03-15T11:50:04.258Z,993.97
2019-03-15T11:51:04.321Z,993.90
2019-03-15T11:52:04.230Z,993.96
2019-03-15T11:53:04.219Z,993.97
2019-03-15T11:54:04.204Z,994.00
2019-03-15T11:55:04.208Z,994.04
2019-03-15T11:56:04.183Z,994.07
2019-03-15T11:57:04.237Z,993.99
2019-03-15T11:58:04.161Z,994.05
2019-03-15T11:59:04.155Z,993.95
2019-03-15T12:00:04.142Z,993.98
2019-03-15T12:01:04.140Z,993.84
2019-03-15T12:02:04.584Z,994.04
2019-03-15T12:03:04.145Z,993.96
2019-03-15T12:04:04.096Z,994.06
2019-03-15T12:05:04.084Z,994.04
2019-03-15T12:06:04.079Z,994.02
2019-03-15T12:07:04.082Z,994.02
2019-03-15T12:08:04.055Z,993.95
2019-03-15T12:09:04.041Z,994.06
2019-03-15T12:10:04.072Z,994.03
2019-03-15T12:11:04.035Z,994.12
2019-03-15T12:12:04.009Z,994.14
2019-03-15T12:13:04.016Z,994.08
2019-03-15T12:14:03.987Z,994.16
2019-03-15T12:15:03.976Z,994.11
2019-03-15T12:16:03.966Z,994.10
2019-03-15T12:17:03.999Z,994.12
2019-03-15T12:18:03.953Z,994.17
2019-03-15T12:19:03.951Z,994.16
2019-03-15T12:20:03.925Z,994.25
2019-03-15T12:21:03.933Z,994.37
2019-03-15T12:22:06.484Z,994.35
2019-03-15T12:23:03.888Z,994.32
2019-03-15T12:24:03.914Z,994.33
2019-03-15T12:25:03.871Z,994.35
2019-03-15T12:26:03.853Z,994.29
2019-03-15T12:27:03.859Z,994.29
2019-03-15T12:28:03.833Z,994.24